Terminal Aerodrome Forecast
Issued by NWS Memphis, TN

Home | Current Version | Previous Version | Text Only | Print | Product List | Glossary On
Versions: 1 2 3 4 5 6 7 8 9 10 11 12 13 14
849
FTUS44 KMEG 031124
TAFMKL
TAF
KMKL 031124Z 0312/0412 07006KT P6SM BKN150 BKN250
     FM031800 07006KT P6SM VCSH BKN060 OVC100
     FM032000 06005KT P6SM -RA SCT015 OVC035
     FM032300 06004KT 5SM -RA BR SCT009 OVC015
     FM040400 08005KT 4SM -RA BR BKN009 OVC015=

USA.gov is the U.S. government's official web portal to all federal, state and local government web resources and services.